createdAt,value
2019-04-14T00:02:29.277Z,99.90
2019-04-14T00:05:01.788Z,99.90
2019-04-14T00:07:31.908Z,99.90
2019-04-14T00:10:04.939Z,99.90
2019-04-14T00:12:34.251Z,99.90
2019-04-14T00:15:05.660Z,99.90
2019-04-14T00:17:34.962Z,99.90
2019-04-14T00:20:09.580Z,99.90
2019-04-14T00:22:46.810Z,99.90
2019-04-14T00:25:17.338Z,99.90
2019-04-14T00:27:47.548Z,99.90
2019-04-14T00:30:18.873Z,99.90
2019-04-14T00:32:55.262Z,99.90
2019-04-14T00:35:40.661Z,99.90
2019-04-14T00:38:23.856Z,99.90
2019-04-14T00:41:02.923Z,99.90
2019-04-14T00:43:54.917Z,99.90
2019-04-14T00:46:45.156Z,99.90
2019-04-14T00:49:15.725Z,99.90
2019-04-14T00:51:46.050Z,99.90
2019-04-14T00:54:15.540Z,99.90
2019-04-14T00:56:45.474Z,99.90
2019-04-14T00:59:15.716Z,99.90
2019-04-14T01:01:45.930Z,99.90
2019-04-14T01:04:16.549Z,99.90
2019-04-14T01:06:46.922Z,99.90
2019-04-14T01:09:17.236Z,99.90
2019-04-14T01:11:46.788Z,99.90
2019-04-14T01:14:16.951Z,99.90
2019-04-14T01:16:47.258Z,99.90
2019-04-14T01:19:17.759Z,99.90
2019-04-14T01:21:48.131Z,99.90
2019-04-14T01:24:18.541Z,99.90
2019-04-14T01:26:48.518Z,99.90
2019-04-14T01:29:18.782Z,99.90
2019-04-14T01:31:49.251Z,99.90
2019-04-14T01:34:19.521Z,99.90
2019-04-14T01:36:49.675Z,99.90
2019-04-14T01:39:19.767Z,99.90
2019-04-14T01:41:49.977Z,99.90
2019-04-14T01:44:19.923Z,99.90
2019-04-14T01:46:49.864Z,99.90
2019-04-14T01:49:20.279Z,99.90
2019-04-14T01:51:57.678Z,99.90
2019-04-14T01:54:45.305Z,99.90
2019-04-14T01:57:24.874Z,99.90
2019-04-14T01:59:54.678Z,99.90
2019-04-14T02:02:26.997Z,99.90
2019-04-14T02:04:57.553Z,99.90
2019-04-14T02:07:27.663Z,99.90
2019-04-14T02:09:57.643Z,99.90
2019-04-14T02:12:27.863Z,99.90
2019-04-14T02:14:58.274Z,99.90
2019-04-14T02:17:28.514Z,99.90
2019-04-14T02:19:58.946Z,99.90
2019-04-14T02:22:29.091Z,99.90
2019-04-14T02:24:59.264Z,99.90
2019-04-14T02:27:29.719Z,99.90
2019-04-14T02:30:00.176Z,99.90
2019-04-14T02:32:57.238Z,99.90
2019-04-14T02:35:32.579Z,99.90
2019-04-14T02:38:09.386Z,99.90
2019-04-14T02:40:37.037Z,99.90
2019-04-14T02:42:54.288Z,99.90
2019-04-14T02:45:35.565Z,99.90
2019-04-14T02:50:30.649Z,99.90
2019-04-14T02:53:12.268Z,99.90
2019-04-14T02:58:10.468Z,99.90
2019-04-14T03:00:58.459Z,99.90
2019-04-14T03:03:14.207Z,99.90
2019-04-14T03:05:46.381Z,99.90
2019-04-14T03:08:11.205Z,99.90
2019-04-14T03:10:39.857Z,99.90
2019-04-14T03:13:13.126Z,99.90
2019-04-14T03:15:53.651Z,99.90
2019-04-14T03:18:42.785Z,99.90
2019-04-14T03:21:19.671Z,99.90
2019-04-14T03:23:57.871Z,99.90
2019-04-14T03:26:35.302Z,99.90
2019-04-14T03:29:12.843Z,99.90
2019-04-14T03:39:17.324Z,99.90
2019-04-14T03:41:48.919Z,99.90
2019-04-14T03:44:16.751Z,99.90
2019-04-14T03:46:49.106Z,99.90
2019-04-14T03:54:15.947Z,99.90
2019-04-14T03:56:48.736Z,99.90
2019-04-14T03:59:19.667Z,99.90
2019-04-14T04:01:50.053Z,99.90
2019-04-14T04:04:20.612Z,99.90
2019-04-14T04:06:50.881Z,99.90
2019-04-14T04:09:21.947Z,99.90
2019-04-14T04:11:52.003Z,99.90
2019-04-14T04:14:22.357Z,99.90
2019-04-14T04:17:14.664Z,99.90
2019-04-14T04:20:02.909Z,99.90
2019-04-14T04:23:09.587Z,99.90
2019-04-14T04:25:50.780Z,99.90
2019-04-14T04:28:40.632Z,99.90
2019-04-14T04:31:20.683Z,99.90
2019-04-14T04:34:12.044Z,99.90
2019-04-14T04:36:50.931Z,99.90
2019-04-14T04:39:23.674Z,99.90
2019-04-14T04:41:53.781Z,99.90
2019-04-14T04:44:23.119Z,99.90
2019-04-14T04:46:52.759Z,99.90
2019-04-14T04:49:26.076Z,99.90
2019-04-14T04:51:53.086Z,99.90
2019-04-14T04:54:23.533Z,99.90
2019-04-14T04:56:53.779Z,99.90
2019-04-14T04:59:23.447Z,99.90
2019-04-14T05:01:53.842Z,99.90
2019-04-14T05:04:24.360Z,99.90
2019-04-14T05:06:59.596Z,99.90
2019-04-14T05:09:51.323Z,99.90
2019-04-14T05:12:43.494Z,99.90
2019-04-14T05:15:33.336Z,99.90
2019-04-14T05:18:02.954Z,99.90
2019-04-14T05:20:33.205Z,99.90
2019-04-14T05:23:03.750Z,99.90
2019-04-14T05:25:34.049Z,99.90
2019-04-14T05:28:04.682Z,99.90
2019-04-14T05:30:35.001Z,99.90
2019-04-14T05:33:05.250Z,99.90
2019-04-14T05:35:35.747Z,99.90
2019-04-14T05:38:06.130Z,99.90
2019-04-14T05:40:36.422Z,99.90
2019-04-14T05:43:06.728Z,99.90
2019-04-14T05:45:37.254Z,99.90
2019-04-14T05:48:07.479Z,99.90
2019-04-14T05:50:37.919Z,99.90
2019-04-14T05:53:08.559Z,99.90
2019-04-14T05:55:37.937Z,99.90
2019-04-14T05:58:07.943Z,99.90
2019-04-14T06:00:39.216Z,99.90
2019-04-14T06:03:08.770Z,99.90
2019-04-14T06:05:38.294Z,99.90
2019-04-14T06:08:07.722Z,99.90
2019-04-14T06:10:36.899Z,99.90
2019-04-14T06:13:06.048Z,99.90
2019-04-14T06:15:35.836Z,99.90
2019-04-14T06:18:05.237Z,99.90
2019-04-14T06:20:34.918Z,99.90
2019-04-14T06:23:04.107Z,99.90
2019-04-14T06:25:36.206Z,99.90
2019-04-14T06:28:04.233Z,99.90
2019-04-14T06:30:51.226Z,99.90
2019-04-14T06:33:42.466Z,99.90
2019-04-14T06:36:29.333Z,99.90
2019-04-14T06:39:07.882Z,99.90
2019-04-14T06:41:37.050Z,99.90
2019-04-14T06:44:06.192Z,99.90
2019-04-14T06:46:35.416Z,99.90
2019-04-14T06:49:04.691Z,99.90
2019-04-14T06:51:34.018Z,99.90
2019-04-14T06:54:03.324Z,99.90
2019-04-14T06:56:32.492Z,99.90
2019-04-14T06:59:01.644Z,99.90
2019-04-14T07:01:30.798Z,99.90
2019-04-14T07:04:00.008Z,99.90
2019-04-14T07:06:29.232Z,99.90
2019-04-14T07:08:58.372Z,99.90
2019-04-14T07:11:27.554Z,99.90
2019-04-14T07:13:56.747Z,99.90
2019-04-14T07:16:25.909Z,99.90
2019-04-14T07:18:55.098Z,99.90
2019-04-14T07:21:24.330Z,99.90
2019-04-14T07:23:53.731Z,99.90
2019-04-14T07:26:23.114Z,99.90
2019-04-14T07:28:56.906Z,99.90
2019-04-14T07:31:44.996Z,99.90
2019-04-14T07:34:36.107Z,99.90
2019-04-14T07:37:38.304Z,99.90
2019-04-14T07:40:23.490Z,99.90
2019-04-14T07:43:19.967Z,99.90
2019-04-14T07:45:53.744Z,99.90
2019-04-14T07:48:28.092Z,99.90
2019-04-14T07:51:16.341Z,99.90
2019-04-14T07:53:50.253Z,99.90
2019-04-14T07:56:38.892Z,99.90
2019-04-14T07:59:21.389Z,99.90
2019-04-14T08:01:56.738Z,99.90
2019-04-14T08:04:32.096Z,99.90
2019-04-14T08:07:01.473Z,99.90
2019-04-14T08:09:30.627Z,99.90
2019-04-14T08:11:59.810Z,99.70
2019-04-14T08:14:29.016Z,96.70
2019-04-14T08:16:58.188Z,98.30
2019-04-14T08:19:27.521Z,99.00
2019-04-14T08:21:56.796Z,97.10
2019-04-14T08:24:26.062Z,95.80
2019-04-14T08:26:55.435Z,95.80
2019-04-14T08:29:24.586Z,92.30
2019-04-14T08:31:53.741Z,92.20
2019-04-14T08:34:23.106Z,91.00
2019-04-14T08:36:52.253Z,89.60
2019-04-14T08:39:21.467Z,88.40
2019-04-14T08:42:09.711Z,90.50
2019-04-14T08:44:44.251Z,90.90
2019-04-14T08:47:41.551Z,90.60
2019-04-14T08:50:25.255Z,92.30
2019-04-14T08:53:16.498Z,93.80
2019-04-14T08:56:13.474Z,93.30
2019-04-14T08:59:04.807Z,94.20
2019-04-14T09:01:53.616Z,91.50
2019-04-14T09:04:37.136Z,91.50
2019-04-14T09:07:25.399Z,90.70
2019-04-14T09:09:58.076Z,90.40
2019-04-14T09:12:30.292Z,90.80
2019-04-14T09:14:59.422Z,89.60
2019-04-14T09:17:30.355Z,89.20
2019-04-14T09:19:59.532Z,85.70
2019-04-14T09:22:28.888Z,85.50
2019-04-14T09:24:58.207Z,84.80
2019-04-14T09:27:27.376Z,84.00
2019-04-14T09:29:56.667Z,84.10
2019-04-14T09:32:27.058Z,83.80
2019-04-14T09:34:56.193Z,82.40
2019-04-14T09:37:25.340Z,82.60
2019-04-14T09:39:54.520Z,82.20
2019-04-14T09:42:23.675Z,81.10
2019-04-14T09:44:52.857Z,82.70
2019-04-14T09:47:22.207Z,80.80
2019-04-14T09:49:51.407Z,79.50
2019-04-14T09:52:20.555Z,77.50
2019-04-14T09:54:49.818Z,76.90
2019-04-14T09:57:18.960Z,75.60
2019-04-14T09:59:48.109Z,74.30
2019-04-14T10:02:17.286Z,72.00
2019-04-14T10:04:46.463Z,72.70
2019-04-14T10:07:15.680Z,69.30
2019-04-14T10:09:45.120Z,69.50
2019-04-14T10:12:14.345Z,68.40
2019-04-14T10:14:43.504Z,67.50
2019-04-14T10:17:12.699Z,66.50
2019-04-14T10:19:41.853Z,67.50
2019-04-14T10:22:11.063Z,66.50
2019-04-14T10:24:40.244Z,67.80
2019-04-14T10:27:09.490Z,66.70
2019-04-14T10:29:38.760Z,66.70
2019-04-14T10:32:07.975Z,66.30
2019-04-14T10:34:37.197Z,67.20
2019-04-14T10:37:06.555Z,67.10
2019-04-14T10:39:35.787Z,66.00
2019-04-14T10:42:05.174Z,64.70
2019-04-14T10:44:34.434Z,62.30
2019-04-14T10:47:03.991Z,63.00
2019-04-14T10:49:33.139Z,61.40
2019-04-14T10:52:02.327Z,61.80
2019-04-14T10:54:31.592Z,59.50
2019-04-14T10:57:01.256Z,54.80
2019-04-14T10:59:30.789Z,54.10
2019-04-14T11:02:00.154Z,53.10
2019-04-14T11:04:29.322Z,52.70
2019-04-14T11:07:17.557Z,51.00
2019-04-14T11:09:46.867Z,50.60
2019-04-14T11:12:16.103Z,52.60
2019-04-14T11:14:45.451Z,51.00
2019-04-14T11:17:14.718Z,50.40
2019-04-14T11:19:43.979Z,51.00
2019-04-14T11:22:13.339Z,52.10
2019-04-14T11:24:42.597Z,51.30
2019-04-14T11:27:11.832Z,52.40
2019-04-14T11:29:41.044Z,52.40
2019-04-14T11:32:35.326Z,50.00
2019-04-14T11:35:23.024Z,52.00
2019-04-14T11:38:14.806Z,52.80
2019-04-14T11:40:49.554Z,50.90
2019-04-14T11:43:18.863Z,52.10
2019-04-14T11:45:48.103Z,51.90
2019-04-14T11:48:17.432Z,50.60
2019-04-14T11:50:46.601Z,50.80
2019-04-14T11:53:15.891Z,48.80
2019-04-14T11:55:45.157Z,50.40
2019-04-14T11:58:14.336Z,48.80
2019-04-14T12:00:54.976Z,49.60
2019-04-14T12:03:36.595Z,49.20
2019-04-14T12:06:24.169Z,48.60
2019-04-14T12:09:12.428Z,45.20
2019-04-14T12:11:42.050Z,44.90
2019-04-14T12:14:11.584Z,44.80
2019-04-14T12:16:42.498Z,44.70
2019-04-14T12:19:11.796Z,45.80
2019-04-14T12:21:41.059Z,45.00
2019-04-14T12:24:10.291Z,42.40
2019-04-14T12:26:39.571Z,42.40
2019-04-14T12:29:09.700Z,43.20
2019-04-14T12:31:39.666Z,38.80
2019-04-14T12:34:08.933Z,38.20
2019-04-14T12:36:38.106Z,40.10
2019-04-14T12:39:15.586Z,40.40
2019-04-14T12:41:49.588Z,38.90
2019-04-14T12:44:40.778Z,38.50
2019-04-14T12:47:41.385Z,39.40
2019-04-14T12:50:27.231Z,39.30
2019-04-14T12:52:56.483Z,37.60
2019-04-14T12:55:26.119Z,36.60
2019-04-14T12:57:58.353Z,35.40
2019-04-14T13:00:33.721Z,34.70
2019-04-14T13:03:03.091Z,35.70
2019-04-14T13:05:32.236Z,37.60
2019-04-14T13:08:01.389Z,38.70
2019-04-14T13:10:30.663Z,36.70
2019-04-14T13:12:59.891Z,37.80
2019-04-14T13:15:29.324Z,35.80
2019-04-14T13:17:58.792Z,36.30
2019-04-14T13:20:27.961Z,35.00
2019-04-14T13:22:57.186Z,33.80
2019-04-14T13:25:26.374Z,32.40
2019-04-14T13:27:55.602Z,33.00
2019-04-14T13:30:28.414Z,29.40
2019-04-14T13:32:57.669Z,29.50
2019-04-14T13:35:26.939Z,30.40
2019-04-14T13:37:56.254Z,30.40
2019-04-14T13:40:25.455Z,29.10
2019-04-14T13:42:54.704Z,29.80
2019-04-14T13:45:23.930Z,28.20
2019-04-14T13:47:53.257Z,29.00
2019-04-14T13:50:22.487Z,28.90
2019-04-14T13:52:51.706Z,28.50
2019-04-14T13:55:20.894Z,28.10
2019-04-14T13:57:50.036Z,28.20
2019-04-14T14:00:19.972Z,27.00
2019-04-14T14:02:49.155Z,28.30
2019-04-14T14:05:18.313Z,28.00
2019-04-14T14:07:47.632Z,28.90
2019-04-14T14:10:17.410Z,28.90
2019-04-14T14:13:23.631Z,31.30
2019-04-14T14:16:17.678Z,29.10
2019-04-14T14:18:52.450Z,26.50
2019-04-14T14:21:33.434Z,24.40
2019-04-14T14:24:33.656Z,23.20
2019-04-14T14:27:02.917Z,21.60
2019-04-14T14:29:32.178Z,22.10
2019-04-14T14:32:03.153Z,20.00
2019-04-14T14:34:32.584Z,22.10
2019-04-14T14:37:01.770Z,24.60
2019-04-14T14:39:32.072Z,25.20
2019-04-14T14:42:01.279Z,24.30
2019-04-14T14:44:38.271Z,22.50
2019-04-14T14:47:19.792Z,22.50
2019-04-14T14:50:20.018Z,21.70
2019-04-14T14:52:49.190Z,20.20
2019-04-14T14:55:18.355Z,21.90
2019-04-14T14:57:47.526Z,24.80
2019-04-14T15:00:25.389Z,24.60
2019-04-14T15:02:54.540Z,25.40
2019-04-14T15:05:23.699Z,26.00
2019-04-14T15:07:52.997Z,26.70
2019-04-14T15:10:22.162Z,27.30
2019-04-14T15:12:51.608Z,24.90
2019-04-14T15:15:20.796Z,22.10
2019-04-14T15:17:49.976Z,21.10
2019-04-14T15:20:19.198Z,20.20
2019-04-14T15:22:48.535Z,20.30
2019-04-14T15:25:17.687Z,21.60
2019-04-14T15:27:46.848Z,21.30
2019-04-14T15:30:19.181Z,21.80
2019-04-14T15:32:48.386Z,21.90
2019-04-14T15:35:17.540Z,24.40
2019-04-14T15:37:46.876Z,25.10
2019-04-14T15:40:16.447Z,25.60
2019-04-14T15:42:45.612Z,24.30
2019-04-14T15:45:14.947Z,22.50
2019-04-14T15:47:44.107Z,20.60
2019-04-14T15:50:13.374Z,19.80
2019-04-14T15:52:42.701Z,19.30
2019-04-14T15:55:12.717Z,19.10
2019-04-14T15:58:00.953Z,19.60
2019-04-14T16:00:52.250Z,20.50
2019-04-14T16:03:26.801Z,20.00
2019-04-14T16:06:03.704Z,22.70
2019-04-14T16:08:38.331Z,23.40
2019-04-14T16:11:32.540Z,23.50
2019-04-14T16:14:11.171Z,22.20
2019-04-14T16:17:02.155Z,22.00
2019-04-14T16:19:53.236Z,19.80
2019-04-14T16:22:22.504Z,20.30
2019-04-14T16:24:51.656Z,22.40
2019-04-14T16:27:39.884Z,21.00
2019-04-14T16:30:23.298Z,21.00
2019-04-14T16:33:23.597Z,21.20
2019-04-14T16:35:53.856Z,21.70
2019-04-14T16:38:23.079Z,21.60
2019-04-14T16:40:52.382Z,21.80
2019-04-14T16:43:21.530Z,21.90
2019-04-14T16:45:50.836Z,21.70
2019-04-14T16:48:20.105Z,21.30
2019-04-14T16:50:49.352Z,21.10
2019-04-14T16:53:23.796Z,21.20
2019-04-14T16:56:14.772Z,22.50
2019-04-14T16:59:05.743Z,22.40
2019-04-14T17:01:37.787Z,23.00
2019-04-14T17:04:06.939Z,23.00
2019-04-14T17:06:36.217Z,23.50
2019-04-14T17:09:07.528Z,24.20
2019-04-14T17:11:36.786Z,24.60
2019-04-14T17:14:08.982Z,26.60
2019-04-14T17:16:50.229Z,26.50
2019-04-14T17:19:24.433Z,26.70
2019-04-14T17:22:04.013Z,25.50
2019-04-14T17:25:01.170Z,26.50
2019-04-14T17:27:55.355Z,26.40
2019-04-14T17:30:49.639Z,27.10
2019-04-14T17:33:26.823Z,28.40
2019-04-14T17:36:24.507Z,29.30
2019-04-14T17:39:15.240Z,29.60
2019-04-14T17:42:06.599Z,30.50
2019-04-14T17:44:40.730Z,31.10
2019-04-14T17:47:23.959Z,31.50
2019-04-14T17:49:58.524Z,32.10
2019-04-14T17:52:32.505Z,32.40
2019-04-14T17:55:23.872Z,33.40
2019-04-14T17:58:12.227Z,33.20
2019-04-14T18:01:06.746Z,33.90
2019-04-14T18:03:50.327Z,33.50
2019-04-14T18:06:30.253Z,34.60
2019-04-14T18:09:18.490Z,35.60
2019-04-14T18:12:02.138Z,35.40
2019-04-14T18:14:40.208Z,35.90
2019-04-14T18:17:29.320Z,36.30
2019-04-14T18:20:05.387Z,36.30
2019-04-14T18:22:35.090Z,36.80
2019-04-14T18:25:05.297Z,37.00
2019-04-14T18:27:40.936Z,38.00
2019-04-14T18:30:26.917Z,37.50
2019-04-14T18:33:24.154Z,38.00
2019-04-14T18:36:03.328Z,38.50
2019-04-14T18:38:51.564Z,38.90
2019-04-14T18:41:37.871Z,39.60
2019-04-14T18:44:26.666Z,39.80
2019-04-14T18:47:10.181Z,40.60
2019-04-14T18:49:49.367Z,41.10
2019-04-14T18:52:26.699Z,41.40
2019-04-14T18:55:22.763Z,44.30
2019-04-14T18:58:01.536Z,45.10
2019-04-14T19:00:44.612Z,45.50
2019-04-14T19:03:13.770Z,43.90
2019-04-14T19:05:42.953Z,44.10
2019-04-14T19:08:12.207Z,44.00
2019-04-14T19:10:43.032Z,44.60
2019-04-14T19:13:25.674Z,45.00
2019-04-14T19:16:02.538Z,45.90
2019-04-14T19:18:38.418Z,46.60
2019-04-14T19:21:10.944Z,47.00
2019-04-14T19:23:40.169Z,47.20
2019-04-14T19:26:09.437Z,47.50
2019-04-14T19:28:38.717Z,48.10
2019-04-14T19:31:07.952Z,47.50
2019-04-14T19:33:37.153Z,47.00
2019-04-14T19:36:06.310Z,47.60
2019-04-14T19:38:35.471Z,47.50
2019-04-14T19:41:04.900Z,48.90
2019-04-14T19:43:34.052Z,49.20
2019-04-14T19:46:03.356Z,49.30
2019-04-14T19:48:32.528Z,49.80
2019-04-14T19:51:01.686Z,49.70
2019-04-14T19:53:30.932Z,50.40
2019-04-14T19:56:00.582Z,51.10
2019-04-14T19:58:29.810Z,51.40
2019-04-14T20:00:59.035Z,51.20
2019-04-14T20:03:28.290Z,51.70
2019-04-14T20:05:57.428Z,51.90
2019-04-14T20:08:26.578Z,52.10
2019-04-14T20:10:56.474Z,52.40
2019-04-14T20:13:27.827Z,52.40
2019-04-14T20:16:14.659Z,52.50
2019-04-14T20:19:09.636Z,53.00
2019-04-14T20:21:56.620Z,53.60
2019-04-14T20:24:34.160Z,53.90
2019-04-14T20:27:13.288Z,54.00
2019-04-14T20:29:47.261Z,55.20
2019-04-14T20:32:20.152Z,54.90
2019-04-14T20:34:49.308Z,55.40
2019-04-14T20:37:18.458Z,56.10
2019-04-14T20:39:47.643Z,56.50
2019-04-14T20:42:16.780Z,57.00
2019-04-14T20:44:45.934Z,57.20
2019-04-14T20:47:15.394Z,57.80
2019-04-14T20:49:44.570Z,57.80
2019-04-14T20:52:13.720Z,58.30
2019-04-14T20:54:43.074Z,58.90
2019-04-14T20:57:12.204Z,58.90
2019-04-14T20:59:41.353Z,59.20
2019-04-14T21:02:47.810Z,59.10
2019-04-14T21:05:34.915Z,59.40
2019-04-14T21:08:29.264Z,60.60
2019-04-14T21:11:02.918Z,60.30
2019-04-14T21:13:51.726Z,60.70
2019-04-14T21:16:26.627Z,60.80
2019-04-14T21:19:07.628Z,60.90
2019-04-14T21:21:55.817Z,61.10
2019-04-14T21:24:33.154Z,60.90
2019-04-14T21:27:22.500Z,61.60
2019-04-14T21:30:05.066Z,62.00
2019-04-14T21:32:44.962Z,62.20
2019-04-14T21:35:30.463Z,62.60
2019-04-14T21:38:07.573Z,62.40
2019-04-14T21:40:51.911Z,62.60
2019-04-14T21:43:21.053Z,62.60
2019-04-14T21:45:50.291Z,63.20
2019-04-14T21:48:19.579Z,63.20
2019-04-14T21:50:48.756Z,63.60
2019-04-14T21:53:17.943Z,63.70
2019-04-14T21:55:47.149Z,63.70
2019-04-14T21:58:38.449Z,63.60
2019-04-14T22:01:51.547Z,64.10
2019-04-14T22:04:40.398Z,64.80
2019-04-14T22:07:41.296Z,64.80
2019-04-14T22:10:32.598Z,65.20
2019-04-14T22:13:02.292Z,65.40
2019-04-14T22:15:31.531Z,65.50
2019-04-14T22:18:00.884Z,66.40
2019-04-14T22:20:30.200Z,66.00
2019-04-14T22:23:01.191Z,66.10
2019-04-14T22:25:30.427Z,66.60
2019-04-14T22:27:59.686Z,66.50
2019-04-14T22:30:28.834Z,67.90
2019-04-14T22:32:58.044Z,69.20
2019-04-14T22:35:28.436Z,70.00
2019-04-14T22:37:57.631Z,71.50
2019-04-14T22:40:26.785Z,72.10
2019-04-14T22:42:56.464Z,72.80
2019-04-14T22:45:25.619Z,74.20
2019-04-14T22:47:54.958Z,74.30
2019-04-14T22:50:24.196Z,75.70
2019-04-14T22:52:53.459Z,76.70
2019-04-14T22:55:22.609Z,78.50
2019-04-14T22:57:51.811Z,78.90
2019-04-14T23:00:38.161Z,80.00
2019-04-14T23:03:19.175Z,80.40
2019-04-14T23:05:54.438Z,81.20
2019-04-14T23:08:55.187Z,82.70
2019-04-14T23:11:41.671Z,83.10
2019-04-14T23:14:40.452Z,82.80
2019-04-14T23:17:46.979Z,84.00
2019-04-14T23:20:25.711Z,85.70
2019-04-14T23:23:29.040Z,84.70
2019-04-14T23:25:58.439Z,85.50
2019-04-14T23:28:27.583Z,86.30
2019-04-14T23:30:56.865Z,88.30
2019-04-14T23:33:26.123Z,88.80
2019-04-14T23:35:55.263Z,90.30
2019-04-14T23:38:24.476Z,91.80
2019-04-14T23:40:53.719Z,91.50
2019-04-14T23:43:22.936Z,90.70
2019-04-14T23:45:52.081Z,92.60
2019-04-14T23:48:21.328Z,92.90
2019-04-14T23:50:50.473Z,92.10
2019-04-14T23:53:19.762Z,92.50
2019-04-14T23:55:50.305Z,93.80
2019-04-14T23:58:19.755Z,95.20
